createdAt,value
2019-02-21T00:02:19.873Z,101867.66
2019-02-21T00:05:23.995Z,101863.94
2019-02-21T00:08:28.139Z,101862.64
2019-02-21T00:11:32.304Z,101861.86
2019-02-21T00:14:36.426Z,101863.69
2019-02-21T00:17:40.573Z,101871.94
2019-02-21T00:20:44.689Z,101869.72
2019-02-21T00:23:48.838Z,101873.41
2019-02-21T00:26:52.997Z,101865.05
2019-02-21T00:29:57.124Z,101862.56
2019-02-21T00:33:01.268Z,101856.98
2019-02-21T00:36:05.397Z,101857.44
2019-02-21T00:39:09.542Z,101854.53
2019-02-21T00:42:13.756Z,101857.20
2019-02-21T00:45:17.955Z,101861.48
2019-02-21T00:48:22.102Z,101852.00
2019-02-21T00:51:26.221Z,101852.17
2019-02-21T00:54:30.365Z,101836.95
2019-02-21T00:57:34.484Z,101835.66
2019-02-21T01:00:46.169Z,101828.43
2019-02-21T01:03:44.550Z,101865.16
2019-02-21T01:06:48.762Z,101859.64
2019-02-21T01:09:52.898Z,101863.99
2019-02-21T01:12:57.102Z,101868.73
2019-02-21T01:16:01.233Z,101871.39
2019-02-21T01:19:05.356Z,101863.61
2019-02-21T01:22:09.502Z,101867.11
2019-02-21T01:25:13.644Z,101861.08
2019-02-21T01:28:17.764Z,101864.66
2019-02-21T01:31:21.908Z,101873.28
2019-02-21T01:34:26.053Z,101871.53
2019-02-21T01:37:30.171Z,101859.11
2019-02-21T01:40:34.319Z,101855.74
2019-02-21T01:43:38.448Z,101853.98
2019-02-21T01:46:42.593Z,101853.15
2019-02-21T01:49:46.755Z,101854.45
2019-02-21T01:52:50.869Z,101853.67
2019-02-21T01:55:55.019Z,101858.41
2019-02-21T01:58:59.149Z,101855.81
2019-02-21T02:02:03.284Z,101858.02
2019-02-21T02:05:08.339Z,101855.49
2019-02-21T02:08:12.481Z,101859.00
2019-02-21T02:11:16.636Z,101853.81
2019-02-21T02:14:20.829Z,101851.67
2019-02-21T02:17:24.977Z,101857.70
2019-02-21T02:20:29.108Z,101855.56
2019-02-21T02:23:33.253Z,101853.42
2019-02-21T02:26:37.397Z,101850.09
2019-02-21T02:29:41.525Z,101847.56
2019-02-21T02:32:45.674Z,101857.09
2019-02-21T02:35:49.797Z,101859.17
2019-02-21T02:38:53.968Z,101855.03
2019-02-21T02:41:58.089Z,101852.43
2019-02-21T02:45:02.241Z,101856.84
2019-02-21T02:48:06.387Z,101852.89
2019-02-21T02:51:10.510Z,101858.14
2019-02-21T02:54:14.652Z,101860.06
2019-02-21T02:57:18.774Z,101859.74
2019-02-21T03:00:22.930Z,101869.34
2019-02-21T03:03:27.036Z,101869.34
2019-02-21T03:06:31.180Z,101866.81
2019-02-21T03:09:35.325Z,101860.78
2019-02-21T03:12:39.483Z,101869.87
2019-02-21T03:15:43.592Z,101865.52
2019-02-21T03:18:47.717Z,101867.27
2019-02-21T03:21:51.862Z,101861.80
2019-02-21T03:24:55.984Z,101862.77
2019-02-21T03:28:00.146Z,101864.91
2019-02-21T03:31:04.298Z,101864.07
2019-02-21T03:34:08.408Z,101866.21
2019-02-21T03:37:12.566Z,101867.89
2019-02-21T03:40:16.677Z,101876.97
2019-02-21T03:43:20.823Z,101871.78
2019-02-21T03:46:24.977Z,101869.78
2019-02-21T03:49:29.105Z,101871.08
2019-02-21T03:52:33.244Z,101869.26
2019-02-21T03:55:37.364Z,101870.69
2019-02-21T03:58:41.778Z,101870.30
2019-02-21T04:01:45.900Z,101872.53
2019-02-21T04:04:50.100Z,101878.63
2019-02-21T04:07:54.240Z,101869.00
2019-02-21T04:10:58.361Z,101871.38
2019-02-21T04:14:02.509Z,101867.94
2019-02-21T04:17:06.629Z,101866.67
2019-02-21T04:20:10.773Z,101866.22
2019-02-21T04:23:14.942Z,101865.83
2019-02-21T04:26:19.066Z,101861.48
2019-02-21T04:29:23.209Z,101857.20
2019-02-21T04:32:27.328Z,101862.39
2019-02-21T04:35:31.470Z,101858.96
2019-02-21T04:38:35.594Z,101847.81
2019-02-21T04:41:39.737Z,101840.73
2019-02-21T04:44:43.896Z,101836.01
2019-02-21T04:47:48.023Z,101829.59
2019-02-21T04:50:54.381Z,101831.80
2019-02-21T04:53:57.984Z,101835.55
2019-02-21T04:57:02.145Z,101843.72
2019-02-21T05:00:09.298Z,101841.09
2019-02-21T05:03:13.434Z,101847.61
2019-02-21T05:06:17.570Z,101843.72
2019-02-21T05:09:21.697Z,101844.59
2019-02-21T05:12:25.838Z,101845.02
2019-02-21T05:15:29.983Z,101849.33
2019-02-21T05:18:34.106Z,101851.11
2019-02-21T05:21:38.254Z,101846.31
2019-02-21T05:24:42.396Z,101851.11
2019-02-21T05:27:48.187Z,101846.84
2019-02-21T05:30:53.948Z,101848.03
2019-02-21T05:33:59.818Z,101854.55
2019-02-21T05:37:21.822Z,101850.34
2019-02-21T05:40:42.563Z,101849.42
2019-02-21T05:43:48.337Z,101845.15
2019-02-21T05:47:03.062Z,101847.00
2019-02-21T05:50:11.975Z,101844.70
2019-02-21T05:53:20.663Z,101844.02
2019-02-21T05:56:27.707Z,101844.02
2019-02-21T05:59:33.481Z,101846.06
2019-02-21T06:02:53.367Z,101843.40
2019-02-21T06:05:58.975Z,101835.46
2019-02-21T06:09:19.454Z,101833.65
2019-02-21T06:12:33.198Z,101833.65
2019-02-21T06:15:32.705Z,101842.72
2019-02-21T06:18:44.665Z,101842.72
2019-02-21T06:21:55.992Z,101844.02
2019-02-21T06:25:01.781Z,101842.34
2019-02-21T06:28:07.542Z,101847.98
2019-02-21T06:31:11.754Z,101851.55
2019-02-21T06:34:15.908Z,101846.87
2019-02-21T06:37:20.029Z,101844.34
2019-02-21T06:40:24.180Z,101846.13
2019-02-21T06:43:28.301Z,101849.63
2019-02-21T06:46:32.445Z,101855.34
2019-02-21T06:49:36.568Z,101851.22
2019-02-21T06:52:40.858Z,101854.88
2019-02-21T06:55:45.077Z,101861.36
2019-02-21T06:58:49.221Z,101858.38
2019-02-21T07:01:53.367Z,101867.91
2019-02-21T07:04:57.488Z,101870.95
2019-02-21T07:08:01.638Z,101875.69
2019-02-21T07:11:06.664Z,101872.64
2019-02-21T07:14:10.990Z,101882.69
2019-02-21T07:17:15.133Z,101889.17
2019-02-21T07:20:19.252Z,101886.97
2019-02-21T07:23:23.396Z,101887.09
2019-02-21T07:26:27.517Z,101890.47
2019-02-21T07:29:31.689Z,101901.80
2019-02-21T07:32:35.788Z,101899.09
2019-02-21T07:35:39.935Z,101894.52
2019-02-21T07:38:44.132Z,101895.65
2019-02-21T07:41:49.992Z,101890.92
2019-02-21T07:44:54.118Z,101895.81
2019-02-21T07:47:58.341Z,101898.92
2019-02-21T07:51:02.484Z,101910.42
2019-02-21T07:54:06.648Z,101922.64
2019-02-21T07:57:10.764Z,101930.42
2019-02-21T08:00:14.908Z,101936.13
2019-02-21T08:03:29.922Z,101930.55
2019-02-21T08:06:24.880Z,101937.87
2019-02-21T08:09:29.000Z,101952.00
2019-02-21T08:12:33.214Z,101952.30
2019-02-21T08:15:37.366Z,101957.86
2019-02-21T08:18:41.490Z,101956.95
2019-02-21T08:21:46.813Z,101959.02
2019-02-21T08:24:50.996Z,101956.95
2019-02-21T08:27:55.208Z,101953.55
2019-02-21T08:30:59.444Z,101952.36
2019-02-21T08:34:05.213Z,101966.20
2019-02-21T08:37:09.376Z,101967.23
2019-02-21T08:40:13.526Z,101975.11
2019-02-21T08:43:17.691Z,101960.55
2019-02-21T08:46:21.791Z,101954.70
2019-02-21T08:49:25.965Z,101954.47
2019-02-21T08:52:30.284Z,101959.80
2019-02-21T08:55:34.382Z,101957.77
2019-02-21T08:58:38.525Z,101957.65
2019-02-21T09:01:42.652Z,101952.23
2019-02-21T09:04:46.795Z,101954.27
2019-02-21T09:07:50.940Z,101956.77
2019-02-21T09:10:55.066Z,101951.11
2019-02-21T09:13:59.215Z,101942.58
2019-02-21T09:17:03.336Z,101942.19
2019-02-21T09:20:09.217Z,101929.48
2019-02-21T09:23:15.797Z,101931.42
2019-02-21T09:26:21.540Z,101936.16
2019-02-21T09:29:25.028Z,101929.59
2019-02-21T09:32:29.153Z,101915.33
2019-02-21T09:35:33.296Z,101914.77
2019-02-21T09:38:37.483Z,101908.83
2019-02-21T09:41:41.600Z,101911.78
2019-02-21T09:44:45.748Z,101915.33
2019-02-21T09:47:49.872Z,101916.97
2019-02-21T09:50:54.028Z,101918.51
2019-02-21T09:53:58.145Z,101927.91
2019-02-21T09:57:12.459Z,101912.34
2019-02-21T10:00:14.217Z,101904.69
2019-02-21T10:03:18.361Z,101907.22
2019-02-21T10:06:22.509Z,101910.02
2019-02-21T10:09:26.632Z,101912.23
2019-02-21T10:12:30.776Z,101921.31
2019-02-21T10:15:34.909Z,101919.10
2019-02-21T10:18:39.047Z,101922.54
2019-02-21T10:21:43.197Z,101919.80
2019-02-21T10:24:47.315Z,101924.48
2019-02-21T10:27:51.457Z,101922.17
2019-02-21T10:30:55.587Z,101925.55
2019-02-21T10:33:59.732Z,101930.67
2019-02-21T10:37:03.890Z,101932.50
2019-02-21T10:40:10.250Z,101938.44
2019-02-21T10:43:14.399Z,101934.16
2019-02-21T10:46:18.517Z,101931.03
2019-02-21T10:49:22.661Z,101920.50
2019-02-21T10:52:26.785Z,101935.31
2019-02-21T10:55:30.937Z,101952.26
2019-02-21T10:58:35.083Z,101956.23
2019-02-21T11:01:39.204Z,101976.73
2019-02-21T11:04:54.059Z,101970.23
2019-02-21T11:07:49.176Z,101970.83
2019-02-21T11:10:53.327Z,101967.31
2019-02-21T11:13:57.450Z,101949.13
2019-02-21T11:17:01.606Z,101951.02
2019-02-21T11:20:08.967Z,101950.73
2019-02-21T11:23:13.093Z,101955.01
2019-02-21T11:26:17.236Z,101954.00
2019-02-21T11:29:21.360Z,101967.54
2019-02-21T11:32:25.525Z,101958.55
2019-02-21T11:35:29.655Z,101951.73
2019-02-21T11:38:33.796Z,101952.58
2019-02-21T11:41:37.940Z,101943.02
2019-02-21T11:44:42.067Z,101940.48
2019-02-21T11:47:46.208Z,101938.64
2019-02-21T11:50:50.328Z,101945.23
2019-02-21T11:53:54.473Z,101952.64
2019-02-21T11:56:58.626Z,101950.95
2019-02-21T12:00:02.923Z,101967.08
2019-02-21T12:03:07.056Z,101965.63
2019-02-21T12:06:11.256Z,101961.81
2019-02-21T12:09:15.396Z,101968.02
2019-02-21T12:12:19.600Z,101958.61
2019-02-21T12:15:23.733Z,101959.84
2019-02-21T12:18:27.877Z,101962.72
2019-02-21T12:21:31.997Z,101963.95
2019-02-21T12:24:36.140Z,101977.47
2019-02-21T12:27:40.341Z,101976.17
2019-02-21T12:30:44.413Z,101978.77
2019-02-21T12:33:48.558Z,101978.70
2019-02-21T12:36:52.679Z,101974.42
2019-02-21T12:39:57.689Z,101973.89
2019-02-21T12:43:01.809Z,101969.78
2019-02-21T12:46:05.953Z,101965.95
2019-02-21T12:49:10.784Z,101962.44
2019-02-21T12:52:15.000Z,101965.42
2019-02-21T12:55:28.203Z,101963.34
2019-02-21T12:58:24.964Z,101977.56
2019-02-21T13:01:29.115Z,101978.79
2019-02-21T13:04:33.537Z,101974.80
2019-02-21T13:07:37.751Z,101976.94
2019-02-21T13:10:41.878Z,101968.17
2019-02-21T13:13:46.023Z,101974.59
2019-02-21T13:16:50.141Z,101974.66
2019-02-21T13:19:54.326Z,101969.84
2019-02-21T13:22:58.443Z,101977.92
2019-02-21T13:26:02.569Z,101976.17
2019-02-21T13:29:06.724Z,101980.77
2019-02-21T13:32:10.849Z,101986.88
2019-02-21T13:35:15.158Z,101990.47
2019-02-21T13:38:19.301Z,101988.04
2019-02-21T13:41:23.424Z,101986.73
2019-02-21T13:44:27.568Z,101988.17
2019-02-21T13:47:31.692Z,101990.47
2019-02-21T13:50:35.837Z,101992.92
2019-02-21T13:53:39.976Z,101997.20
2019-02-21T13:56:44.098Z,102000.19
2019-02-21T13:59:48.242Z,101996.29
2019-02-21T14:02:52.426Z,101994.99
2019-02-21T14:06:03.576Z,101991.78
2019-02-21T14:09:02.369Z,101992.92
2019-02-21T14:12:06.493Z,101999.34
2019-02-21T14:15:16.162Z,102000.45
2019-02-21T14:18:20.331Z,102002.70
2019-02-21T14:21:24.429Z,102003.75
2019-02-21T14:24:36.363Z,102003.23
2019-02-21T14:27:34.397Z,102001.94
2019-02-21T14:30:38.546Z,102005.07
2019-02-21T14:33:42.670Z,102013.56
2019-02-21T14:36:46.812Z,102011.74
2019-02-21T14:39:50.974Z,102011.50
2019-02-21T14:42:55.098Z,102010.13
2019-02-21T14:45:59.250Z,102007.20
2019-02-21T14:49:03.372Z,102007.20
2019-02-21T14:52:07.513Z,102006.83
2019-02-21T14:55:16.030Z,102003.63
2019-02-21T14:58:20.179Z,102000.57
2019-02-21T15:01:24.317Z,102011.55
2019-02-21T15:04:28.445Z,102020.20
2019-02-21T15:07:32.586Z,102017.68
2019-02-21T15:10:36.705Z,102021.75
2019-02-21T15:13:40.867Z,102019.54
2019-02-21T15:16:44.978Z,102018.77
2019-02-21T15:19:49.124Z,102025.27
2019-02-21T15:22:54.080Z,102017.92
2019-02-21T15:25:58.273Z,102016.63
2019-02-21T15:29:02.414Z,102022.27
2019-02-21T15:32:11.009Z,102021.19
2019-02-21T15:35:12.476Z,102026.70
2019-02-21T15:38:20.013Z,102024.42
2019-02-21T15:41:22.453Z,102025.02
2019-02-21T15:44:26.590Z,102028.00
2019-02-21T15:47:30.715Z,102029.30
2019-02-21T15:50:34.864Z,102038.79
2019-02-21T15:53:39.017Z,102036.64
2019-02-21T15:56:43.144Z,102041.45
2019-02-21T15:59:47.291Z,102048.02
2019-02-21T16:02:51.413Z,102045.53
2019-02-21T16:05:55.562Z,102055.08
2019-02-21T16:08:59.685Z,102056.14
2019-02-21T16:12:05.551Z,102056.73
2019-02-21T16:15:11.601Z,102068.98
2019-02-21T16:18:15.749Z,102070.56
2019-02-21T16:21:19.894Z,102072.64
2019-02-21T16:24:24.086Z,102071.20
2019-02-21T16:27:28.224Z,102071.13
2019-02-21T16:30:32.354Z,102072.25
2019-02-21T16:33:36.488Z,102064.47
2019-02-21T16:36:40.615Z,102064.57
2019-02-21T16:39:44.768Z,102067.23
2019-02-21T16:42:48.993Z,102067.91
2019-02-21T16:45:54.111Z,102064.25
2019-02-21T16:48:58.331Z,102063.41
2019-02-21T16:52:02.452Z,102062.50
2019-02-21T16:55:09.606Z,102059.44
2019-02-21T16:58:13.752Z,102068.08
2019-02-21T17:01:17.873Z,102073.03
2019-02-21T17:04:22.016Z,102086.49
2019-02-21T17:07:26.143Z,102086.31
2019-02-21T17:10:30.284Z,102090.06
2019-02-21T17:13:34.447Z,102089.89
2019-02-21T17:16:38.569Z,102093.64
2019-02-21T17:19:42.713Z,102100.73
2019-02-21T17:22:46.837Z,102107.24
2019-02-21T17:25:50.981Z,102109.45
2019-02-21T17:28:55.111Z,102112.54
2019-02-21T17:31:59.254Z,102111.77
2019-02-21T17:35:03.396Z,102113.45
2019-02-21T17:38:07.524Z,102119.05
2019-02-21T17:41:11.671Z,102125.23
2019-02-21T17:44:15.795Z,102120.41
2019-02-21T17:47:19.974Z,102123.08
2019-02-21T17:50:24.125Z,102127.30
2019-02-21T17:53:28.245Z,102115.66
2019-02-21T17:56:32.394Z,102121.79
2019-02-21T17:59:36.517Z,102119.41
2019-02-21T18:02:40.664Z,102126.02
2019-02-21T18:05:44.809Z,102127.84
2019-02-21T18:08:48.935Z,102129.60
2019-02-21T18:11:53.085Z,102130.91
2019-02-21T18:14:57.237Z,102129.22
2019-02-21T18:18:01.370Z,102139.16
2019-02-21T18:21:08.074Z,102146.13
2019-02-21T18:24:11.332Z,102148.41
2019-02-21T18:27:15.477Z,102146.80
2019-02-21T18:30:19.703Z,102150.23
2019-02-21T18:33:23.824Z,102153.02
2019-02-21T18:36:27.969Z,102148.27
2019-02-21T18:39:32.095Z,102161.48
2019-02-21T18:42:36.243Z,102157.66
2019-02-21T18:45:40.392Z,102166.08
2019-02-21T18:48:44.516Z,102171.42
2019-02-21T18:51:48.661Z,102170.30
2019-02-21T18:54:52.784Z,102178.20
2019-02-21T18:57:56.932Z,102183.92
2019-02-21T19:01:01.081Z,102189.26
2019-02-21T19:04:05.206Z,102190.66
2019-02-21T19:07:09.353Z,102199.77
2019-02-21T19:10:16.543Z,102205.55
2019-02-21T19:13:20.665Z,102212.12
2019-02-21T19:16:24.884Z,102209.59
2019-02-21T19:19:29.007Z,102204.62
2019-02-21T19:22:33.154Z,102201.04
2019-02-21T19:25:37.297Z,102193.24
2019-02-21T19:28:41.427Z,102193.38
2019-02-21T19:31:45.632Z,102203.77
2019-02-21T19:34:49.757Z,102209.11
2019-02-21T19:37:53.903Z,102212.94
2019-02-21T19:40:58.059Z,102219.67
2019-02-21T19:44:08.825Z,102229.28
2019-02-21T19:47:08.027Z,102233.64
2019-02-21T19:50:12.706Z,102238.31
2019-02-21T19:53:16.857Z,102239.36
2019-02-21T19:56:21.097Z,102249.69
2019-02-21T19:59:25.216Z,102254.56
2019-02-21T20:02:29.363Z,102263.20
2019-02-21T20:05:33.485Z,102256.31
2019-02-21T20:08:37.633Z,102264.18
2019-02-21T20:11:41.879Z,102263.33
2019-02-21T20:14:46.009Z,102260.50
2019-02-21T20:17:50.155Z,102261.02
2019-02-21T20:20:54.278Z,102261.87
2019-02-21T20:23:58.421Z,102281.03
2019-02-21T20:27:02.565Z,102279.44
2019-02-21T20:30:12.615Z,102282.88
2019-02-21T20:33:16.832Z,102286.39
2019-02-21T20:36:21.058Z,102293.27
2019-02-21T20:39:25.182Z,102299.44
2019-02-21T20:42:31.453Z,102307.56
2019-02-21T20:45:35.212Z,102309.95
2019-02-21T20:48:39.357Z,102308.72
2019-02-21T20:51:43.568Z,102316.56
2019-02-21T20:54:47.694Z,102321.31
2019-02-21T20:57:51.844Z,102334.84
2019-02-21T21:00:56.144Z,102337.63
2019-02-21T21:04:00.285Z,102334.70
2019-02-21T21:07:04.429Z,102342.11
2019-02-21T21:10:13.231Z,102347.40
2019-02-21T21:13:17.374Z,102352.32
2019-02-21T21:16:21.497Z,102329.80
2019-02-21T21:19:25.647Z,102356.28
2019-02-21T21:22:29.788Z,102355.37
2019-02-21T21:25:33.915Z,102363.68
2019-02-21T21:28:38.061Z,102371.08
2019-02-21T21:31:42.192Z,102364.28
2019-02-21T21:34:46.337Z,102370.33
2019-02-21T21:37:50.487Z,102373.83
2019-02-21T21:40:54.674Z,102373.95
2019-02-21T21:43:58.818Z,102378.18
2019-02-21T21:47:02.942Z,102377.34
2019-02-21T21:50:09.627Z,102393.44
2019-02-21T21:53:13.790Z,102392.19
2019-02-21T21:56:17.917Z,102394.84
2019-02-21T21:59:22.063Z,102390.70
2019-02-21T22:02:26.217Z,102398.50
2019-02-21T22:05:30.340Z,102403.70
2019-02-21T22:08:34.489Z,102407.28
2019-02-21T22:11:38.613Z,102411.62
2019-02-21T22:14:42.757Z,102408.28
2019-02-21T22:17:46.904Z,102408.73
2019-02-21T22:20:51.025Z,102413.47
2019-02-21T22:23:55.277Z,102423.46
2019-02-21T22:26:59.469Z,102432.95
2019-02-21T22:30:04.087Z,102430.02
2019-02-21T22:33:08.230Z,102440.52
2019-02-21T22:36:12.353Z,102440.84
2019-02-21T22:39:16.830Z,102445.20
2019-02-21T22:42:21.097Z,102443.62
2019-02-21T22:45:25.242Z,102448.05
2019-02-21T22:48:29.390Z,102457.45
2019-02-21T22:51:33.510Z,102457.90
2019-02-21T22:54:37.665Z,102466.23
2019-02-21T22:57:41.821Z,102464.14
2019-02-21T23:00:56.268Z,102468.88
2019-02-21T23:04:09.557Z,102479.72
2019-02-21T23:07:23.093Z,102483.61
2019-02-21T23:10:27.269Z,102483.67
2019-02-21T23:13:31.385Z,102484.63
2019-02-21T23:16:35.509Z,102483.33
2019-02-21T23:19:39.654Z,102488.06
2019-02-21T23:22:43.777Z,102482.08
2019-02-21T23:25:47.920Z,102484.77
2019-02-21T23:28:52.041Z,102485.22
2019-02-21T23:31:56.184Z,102498.25
2019-02-21T23:35:00.344Z,102497.06
2019-02-21T23:38:04.448Z,102506.94
2019-02-21T23:41:08.620Z,102507.45
2019-02-21T23:44:12.737Z,102511.34
2019-02-21T23:47:16.890Z,102513.04
2019-02-21T23:50:21.011Z,102522.17
2019-02-21T23:53:25.156Z,102530.41
2019-02-21T23:56:29.275Z,102536.14
2019-02-21T23:59:33.420Z,102539.11
